Pagrindinis puslapis
METAR-TAF:

METAR-TAF

Oro uostai :

Tarvizijus, Italija

platuma: 46-30N, ilguma: 013-35E, Aukštis: 777 m

Dabartinis oras

Ataskaita buvo paskelbta 1 valandą ir 41 minutes, ne 17:55 UTC
Ramus vėjas
Temperatūra 10°C
Drėgmė 82%
Slėgis 1024 hPa
Matomumas 10 km arba daugiau
nėra debesų žemiau 1500 m ir nėra kamuolinių lietaus debesų

METAR: LIVO 191755Z 00000KT CAVOK 10/07 Q1024 RMK SKC VIS MIN 9999

Laikas: 21:36 (19:36 UTC)


TAF: trūkstamas

Orai ataskaitas ir orų prognozės (METAR, TAF).

turimą stotys yra geltonos ir raudonos taškus žemėlapyje.

Perkelti pele per norėdami pamatyti stoties vardą.

Tada spustelėkite, norėdami matyti oro stebėjimo ir prognozės.

Norėdami pakeisti žemėlapį: spustelėkite ant žalios mygtukų su juodo kryžiaus žemyn,; žalią mygtuką su brūkšneliu, jei norite nutolinti; arba žalių rodyklių gretimoms žemėlapius.


METAR-TAF: